Ana Sayfa
METAR-TAF:

METAR-TAF

Havaalanları :

Larissa, Yunanistan

Enlem: 39-38N, Boylam: 022-25E, yükseklik: 73 m

METAR: eksik

Saat: 22:53 (19:53 UTC)

Tahmin

Rapor saat 17:00 UTC de 2 saat ve 53 dakika önce yapıldı.
Ayın 31'si saat 18 UTC'den ayın 01'si saat 03 UTC'ye kadar geçerli Tahmin
Rüzgar değişken yönden 3 kt
Görüş mesafesi 10 km veya daha fazla
2500 ft yükseklikte az bulutlu
8000 ft yükseklikte parçalı bulutlu

TAF: LGLR 311700Z 3118/0103 VRB03KT 9999 FEW025 SCT080

4.000'den fazla havaalanı için hava durumu gözlemleri ve tahminleri (METAR ve TAF raporları).

Kullanılabilir istasyonlar harita üzerinde sarı ve kırmızı noktalarla gösterilir.

İstasyonun adını görmek için fareyi noktanın üzerinde gezdirin.

Sonrasında hava gözlem ve tahminlerini görmek için tıklayın.

Haritayı değiştirmek için: yaklaştırmak için siyah artı işaretli yeşil düğmeye ve uzaklaştırmak için de eksi işaretli düğmeye hızla tıklayın; bitişik haritalar için yeşil okları kullanın.


METAR-TAF: